sensor_id;sensor_type;location;lat;lon;timestamp;P1;durP1;ratioP1;P2;durP2;ratioP2
27293;SDS011;14785;52.556;13.430;2022-08-19T00:00:15;19.97;;;18.07;;
27293;SDS011;14785;52.556;13.430;2022-08-19T00:02:41;18.30;;;16.63;;
27293;SDS011;14785;52.556;13.430;2022-08-19T00:05:08;21.10;;;18.98;;
27293;SDS011;14785;52.556;13.430;2022-08-19T00:07:35;21.88;;;19.70;;
27293;SDS011;14785;52.556;13.430;2022-08-19T00:10:00;19.17;;;17.17;;
27293;SDS011;14785;52.556;13.430;2022-08-19T00:12:25;21.27;;;19.23;;
27293;SDS011;14785;52.556;13.430;2022-08-19T00:14:51;18.63;;;16.37;;
27293;SDS011;14785;52.556;13.430;2022-08-19T00:17:18;18.00;;;16.02;;
27293;SDS011;14785;52.556;13.430;2022-08-19T00:19:44;16.10;;;14.60;;
27293;SDS011;14785;52.556;13.430;2022-08-19T00:22:10;18.37;;;16.57;;
27293;SDS011;14785;52.556;13.430;2022-08-19T00:24:35;18.00;;;16.30;;
27293;SDS011;14785;52.556;13.430;2022-08-19T00:27:02;15.15;;;13.65;;
27293;SDS011;14785;52.556;13.430;2022-08-19T00:29:28;19.70;;;16.47;;
27293;SDS011;14785;52.556;13.430;2022-08-19T00:31:53;10.90;;;9.77;;
27293;SDS011;14785;52.556;13.430;2022-08-19T00:34:20;17.73;;;12.80;;
27293;SDS011;14785;52.556;13.430;2022-08-19T00:36:48;18.55;;;13.68;;
27293;SDS011;14785;52.556;13.430;2022-08-19T00:39:14;14.40;;;11.88;;
27293;SDS011;14785;52.556;13.430;2022-08-19T00:41:42;13.57;;;12.10;;
27293;SDS011;14785;52.556;13.430;2022-08-19T00:44:12;12.70;;;11.40;;
27293;SDS011;14785;52.556;13.430;2022-08-19T00:46:43;12.75;;;11.55;;
27293;SDS011;14785;52.556;13.430;2022-08-19T00:49:11;10.82;;;9.63;;
27293;SDS011;14785;52.556;13.430;2022-08-19T00:51:42;12.45;;;11.20;;
27293;SDS011;14785;52.556;13.430;2022-08-19T00:54:12;13.82;;;12.52;;
27293;SDS011;14785;52.556;13.430;2022-08-19T00:56:37;17.10;;;13.93;;
27293;SDS011;14785;52.556;13.430;2022-08-19T00:59:03;17.33;;;15.73;;
27293;SDS011;14785;52.556;13.430;2022-08-19T01:01:34;18.55;;;16.52;;
27293;SDS011;14785;52.556;13.430;2022-08-19T01:04:01;14.07;;;12.77;;
27293;SDS011;14785;52.556;13.430;2022-08-19T01:06:26;8.73;;;7.57;;
27293;SDS011;14785;52.556;13.430;2022-08-19T01:08:52;17.17;;;15.43;;
27293;SDS011;14785;52.556;13.430;2022-08-19T01:11:19;11.27;;;10.13;;
27293;SDS011;14785;52.556;13.430;2022-08-19T01:13:46;11.45;;;10.25;;
27293;SDS011;14785;52.556;13.430;2022-08-19T01:16:11;12.80;;;11.60;;
27293;SDS011;14785;52.556;13.430;2022-08-19T01:18:41;13.57;;;11.60;;
27293;SDS011;14785;52.556;13.430;2022-08-19T01:26:30;21.10;;;16.45;;
27293;SDS011;14785;52.556;13.430;2022-08-19T01:28:56;17.83;;;10.97;;
27293;SDS011;14785;52.556;13.430;2022-08-19T01:31:24;14.98;;;13.48;;
27293;SDS011;14785;52.556;13.430;2022-08-19T01:33:55;17.15;;;15.10;;
27293;SDS011;14785;52.556;13.430;2022-08-19T01:36:23;16.55;;;14.10;;
27293;SDS011;14785;52.556;13.430;2022-08-19T01:38:51;8.80;;;7.90;;
27293;SDS011;14785;52.556;13.430;2022-08-19T01:41:17;16.17;;;14.52;;
27293;SDS011;14785;52.556;13.430;2022-08-19T01:43:43;9.80;;;8.85;;
27293;SDS011;14785;52.556;13.430;2022-08-19T01:46:09;12.02;;;10.18;;
27293;SDS011;14785;52.556;13.430;2022-08-19T01:48:36;9.45;;;8.48;;
27293;SDS011;14785;52.556;13.430;2022-08-19T01:51:05;13.73;;;12.43;;
27293;SDS011;14785;52.556;13.430;2022-08-19T01:53:32;19.60;;;17.38;;
27293;SDS011;14785;52.556;13.430;2022-08-19T01:55:57;20.57;;;16.00;;
27293;SDS011;14785;52.556;13.430;2022-08-19T01:58:24;17.08;;;14.32;;
27293;SDS011;14785;52.556;13.430;2022-08-19T02:00:57;15.70;;;13.25;;
27293;SDS011;14785;52.556;13.430;2022-08-19T02:03:23;17.52;;;14.93;;
27293;SDS011;14785;52.556;13.430;2022-08-19T02:05:53;18.92;;;17.13;;
27293;SDS011;14785;52.556;13.430;2022-08-19T02:08:24;22.65;;;20.35;;
27293;SDS011;14785;52.556;13.430;2022-08-19T02:13:16;37.27;;;25.20;;
27293;SDS011;14785;52.556;13.430;2022-08-19T02:15:42;32.00;;;25.90;;
27293;SDS011;14785;52.556;13.430;2022-08-19T02:18:07;27.67;;;24.67;;
27293;SDS011;14785;52.556;13.430;2022-08-19T02:20:33;36.75;;;32.38;;
27293;SDS011;14785;52.556;13.430;2022-08-19T02:23:00;37.92;;;31.40;;
27293;SDS011;14785;52.556;13.430;2022-08-19T02:25:26;34.65;;;30.98;;
27293;SDS011;14785;52.556;13.430;2022-08-19T02:27:52;45.67;;;37.03;;
27293;SDS011;14785;52.556;13.430;2022-08-19T02:30:19;43.47;;;38.42;;
27293;SDS011;14785;52.556;13.430;2022-08-19T02:32:44;44.88;;;39.97;;
27293;SDS011;14785;52.556;13.430;2022-08-19T02:35:10;35.37;;;28.70;;
27293;SDS011;14785;52.556;13.430;2022-08-19T02:37:36;34.65;;;30.45;;
27293;SDS011;14785;52.556;13.430;2022-08-19T02:40:20;24.15;;;21.67;;
27293;SDS011;14785;52.556;13.430;2022-08-19T02:42:46;21.83;;;19.40;;
27293;SDS011;14785;52.556;13.430;2022-08-19T02:45:12;19.60;;;17.63;;
27293;SDS011;14785;52.556;13.430;2022-08-19T02:47:38;18.70;;;16.70;;
27293;SDS011;14785;52.556;13.430;2022-08-19T02:50:04;22.53;;;20.17;;
27293;SDS011;14785;52.556;13.430;2022-08-19T02:52:31;18.38;;;14.45;;
27293;SDS011;14785;52.556;13.430;2022-08-19T02:54:57;20.85;;;16.95;;
27293;SDS011;14785;52.556;13.430;2022-08-19T02:57:23;17.07;;;15.50;;
27293;SDS011;14785;52.556;13.430;2022-08-19T02:59:49;14.27;;;11.68;;
27293;SDS011;14785;52.556;13.430;2022-08-19T03:02:14;15.82;;;13.63;;
27293;SDS011;14785;52.556;13.430;2022-08-19T03:04:40;17.85;;;16.15;;
27293;SDS011;14785;52.556;13.430;2022-08-19T03:07:07;15.85;;;10.77;;
27293;SDS011;14785;52.556;13.430;2022-08-19T03:09:33;16.50;;;14.80;;
27293;SDS011;14785;52.556;13.430;2022-08-19T03:12:02;13.57;;;12.07;;
27293;SDS011;14785;52.556;13.430;2022-08-19T03:14:30;19.77;;;17.48;;
27293;SDS011;14785;52.556;13.430;2022-08-19T03:16:56;12.70;;;11.40;;
27293;SDS011;14785;52.556;13.430;2022-08-19T03:19:22;12.17;;;10.87;;
27293;SDS011;14785;52.556;13.430;2022-08-19T03:21:48;17.27;;;14.67;;
27293;SDS011;14785;52.556;13.430;2022-08-19T03:26:41;13.50;;;12.10;;
27293;SDS011;14785;52.556;13.430;2022-08-19T03:29:09;18.23;;;14.95;;
27293;SDS011;14785;52.556;13.430;2022-08-19T03:31:36;11.75;;;10.55;;
27293;SDS011;14785;52.556;13.430;2022-08-19T03:34:03;18.83;;;14.80;;
27293;SDS011;14785;52.556;13.430;2022-08-19T03:36:28;16.50;;;14.63;;
27293;SDS011;14785;52.556;13.430;2022-08-19T03:38:55;14.00;;;12.47;;
27293;SDS011;14785;52.556;13.430;2022-08-19T03:41:32;13.60;;;10.85;;
27293;SDS011;14785;52.556;13.430;2022-08-19T03:44:02;13.98;;;12.70;;
27293;SDS011;14785;52.556;13.430;2022-08-19T03:46:29;13.05;;;11.77;;
27293;SDS011;14785;52.556;13.430;2022-08-19T03:48:57;18.58;;;16.67;;
27293;SDS011;14785;52.556;13.430;2022-08-19T03:51:25;16.63;;;14.50;;
27293;SDS011;14785;52.556;13.430;2022-08-19T03:53:56;15.98;;;14.40;;
27293;SDS011;14785;52.556;13.430;2022-08-19T03:56:22;14.95;;;13.23;;
27293;SDS011;14785;52.556;13.430;2022-08-19T03:58:50;11.55;;;10.43;;
27293;SDS011;14785;52.556;13.430;2022-08-19T04:01:16;14.63;;;13.07;;
27293;SDS011;14785;52.556;13.430;2022-08-19T04:03:44;10.73;;;9.73;;
27293;SDS011;14785;52.556;13.430;2022-08-19T04:06:15;13.15;;;10.55;;
27293;SDS011;14785;52.556;13.430;2022-08-19T04:08:46;10.93;;;9.57;;
27293;SDS011;14785;52.556;13.430;2022-08-19T04:11:15;15.00;;;11.18;;
27293;SDS011;14785;52.556;13.430;2022-08-19T04:13:48;14.45;;;13.05;;
27293;SDS011;14785;52.556;13.430;2022-08-19T04:16:16;26.02;;;20.10;;
27293;SDS011;14785;52.556;13.430;2022-08-19T04:18:45;17.52;;;14.65;;
27293;SDS011;14785;52.556;13.430;2022-08-19T04:21:16;17.67;;;15.98;;
27293;SDS011;14785;52.556;13.430;2022-08-19T04:23:47;12.60;;;11.35;;
27293;SDS011;14785;52.556;13.430;2022-08-19T04:26:13;20.40;;;16.70;;
27293;SDS011;14785;52.556;13.430;2022-08-19T04:28:40;15.82;;;13.05;;
27293;SDS011;14785;52.556;13.430;2022-08-19T04:31:06;17.88;;;14.60;;
27293;SDS011;14785;52.556;13.430;2022-08-19T04:33:38;17.33;;;13.95;;
27293;SDS011;14785;52.556;13.430;2022-08-19T04:36:03;17.63;;;14.53;;
27293;SDS011;14785;52.556;13.430;2022-08-19T04:38:29;16.73;;;11.43;;
27293;SDS011;14785;52.556;13.430;2022-08-19T04:40:54;19.53;;;17.07;;
27293;SDS011;14785;52.556;13.430;2022-08-19T04:43:38;17.80;;;14.27;;
27293;SDS011;14785;52.556;13.430;2022-08-19T04:46:07;14.55;;;12.85;;
27293;SDS011;14785;52.556;13.430;2022-08-19T04:48:35;12.90;;;11.60;;
27293;SDS011;14785;52.556;13.430;2022-08-19T04:51:01;12.90;;;11.60;;
27293;SDS011;14785;52.556;13.430;2022-08-19T04:53:33;12.80;;;11.60;;
27293;SDS011;14785;52.556;13.430;2022-08-19T04:56:03;14.80;;;13.30;;
27293;SDS011;14785;52.556;13.430;2022-08-19T04:58:33;14.40;;;12.93;;
27293;SDS011;14785;52.556;13.430;2022-08-19T05:00:58;12.43;;;11.10;;
27293;SDS011;14785;52.556;13.430;2022-08-19T05:03:24;16.48;;;12.02;;
27293;SDS011;14785;52.556;13.430;2022-08-19T05:05:50;12.68;;;11.43;;
27293;SDS011;14785;52.556;13.430;2022-08-19T05:08:17;15.47;;;10.73;;
27293;SDS011;14785;52.556;13.430;2022-08-19T05:10:45;11.57;;;10.05;;
27293;SDS011;14785;52.556;13.430;2022-08-19T05:13:13;13.07;;;11.55;;
27293;SDS011;14785;52.556;13.430;2022-08-19T05:15:39;14.07;;;11.70;;
27293;SDS011;14785;52.556;13.430;2022-08-19T05:18:06;16.58;;;13.43;;
27293;SDS011;14785;52.556;13.430;2022-08-19T05:20:49;17.00;;;13.45;;
27293;SDS011;14785;52.556;13.430;2022-08-19T05:23:33;13.65;;;12.27;;
27293;SDS011;14785;52.556;13.430;2022-08-19T05:25:59;14.23;;;11.17;;
27293;SDS011;14785;52.556;13.430;2022-08-19T05:28:24;14.03;;;12.10;;
27293;SDS011;14785;52.556;13.430;2022-08-19T05:30:49;16.27;;;11.57;;
27293;SDS011;14785;52.556;13.430;2022-08-19T05:33:16;11.75;;;10.63;;
27293;SDS011;14785;52.556;13.430;2022-08-19T05:35:42;11.70;;;10.30;;
27293;SDS011;14785;52.556;13.430;2022-08-19T05:38:09;14.75;;;11.50;;
27293;SDS011;14785;52.556;13.430;2022-08-19T05:40:36;19.70;;;15.82;;
27293;SDS011;14785;52.556;13.430;2022-08-19T05:43:05;14.45;;;12.48;;
27293;SDS011;14785;52.556;13.430;2022-08-19T05:45:32;15.55;;;11.57;;
27293;SDS011;14785;52.556;13.430;2022-08-19T05:48:02;13.15;;;10.55;;
27293;SDS011;14785;52.556;13.430;2022-08-19T05:50:27;14.03;;;11.00;;
27293;SDS011;14785;52.556;13.430;2022-08-19T05:52:53;14.00;;;10.93;;
27293;SDS011;14785;52.556;13.430;2022-08-19T05:55:18;10.70;;;9.60;;
27293;SDS011;14785;52.556;13.430;2022-08-19T05:57:45;16.02;;;11.68;;
27293;SDS011;14785;52.556;13.430;2022-08-19T06:00:11;13.52;;;11.60;;
27293;SDS011;14785;52.556;13.430;2022-08-19T06:02:37;12.48;;;11.05;;
27293;SDS011;14785;52.556;13.430;2022-08-19T06:05:04;14.10;;;10.77;;
27293;SDS011;14785;52.556;13.430;2022-08-19T06:07:32;14.27;;;12.95;;
27293;SDS011;14785;52.556;13.430;2022-08-19T06:09:57;15.95;;;14.35;;
27293;SDS011;14785;52.556;13.430;2022-08-19T06:12:23;13.40;;;11.63;;
27293;SDS011;14785;52.556;13.430;2022-08-19T06:14:53;16.48;;;13.30;;
27293;SDS011;14785;52.556;13.430;2022-08-19T06:19:46;16.65;;;13.32;;
27293;SDS011;14785;52.556;13.430;2022-08-19T06:22:11;18.90;;;14.07;;
27293;SDS011;14785;52.556;13.430;2022-08-19T06:24:38;18.20;;;14.90;;
27293;SDS011;14785;52.556;13.430;2022-08-19T06:27:03;12.03;;;10.07;;
27293;SDS011;14785;52.556;13.430;2022-08-19T06:29:30;13.32;;;11.85;;
27293;SDS011;14785;52.556;13.430;2022-08-19T06:34:23;19.27;;;16.80;;
27293;SDS011;14785;52.556;13.430;2022-08-19T06:39:18;21.40;;;19.07;;
27293;SDS011;14785;52.556;13.430;2022-08-19T06:41:53;18.48;;;14.63;;
27293;SDS011;14785;52.556;13.430;2022-08-19T06:44:23;17.13;;;15.32;;
27293;SDS011;14785;52.556;13.430;2022-08-19T06:46:51;17.08;;;15.27;;
27293;SDS011;14785;52.556;13.430;2022-08-19T06:49:17;15.15;;;13.68;;
27293;SDS011;14785;52.556;13.430;2022-08-19T06:51:45;16.92;;;15.32;;
27293;SDS011;14785;52.556;13.430;2022-08-19T06:54:14;19.60;;;17.60;;
27293;SDS011;14785;52.556;13.430;2022-08-19T06:56:43;15.18;;;12.93;;
27293;SDS011;14785;52.556;13.430;2022-08-19T06:59:11;14.38;;;12.30;;
27293;SDS011;14785;52.556;13.430;2022-08-19T07:01:43;17.55;;;14.80;;
27293;SDS011;14785;52.556;13.430;2022-08-19T07:04:15;15.57;;;14.00;;
27293;SDS011;14785;52.556;13.430;2022-08-19T07:06:43;19.67;;;16.63;;
27293;SDS011;14785;52.556;13.430;2022-08-19T07:11:35;16.75;;;14.05;;
27293;SDS011;14785;52.556;13.430;2022-08-19T07:14:01;17.13;;;15.52;;
27293;SDS011;14785;52.556;13.430;2022-08-19T07:16:27;17.55;;;15.73;;
27293;SDS011;14785;52.556;13.430;2022-08-19T07:18:53;14.20;;;12.85;;
27293;SDS011;14785;52.556;13.430;2022-08-19T07:21:20;18.20;;;16.02;;
27293;SDS011;14785;52.556;13.430;2022-08-19T07:23:49;16.20;;;14.32;;
27293;SDS011;14785;52.556;13.430;2022-08-19T07:28:47;14.82;;;13.32;;
27293;SDS011;14785;52.556;13.430;2022-08-19T07:31:13;15.40;;;13.15;;
27293;SDS011;14785;52.556;13.430;2022-08-19T07:33:42;18.90;;;15.45;;
27293;SDS011;14785;52.556;13.430;2022-08-19T07:36:08;16.33;;;14.68;;
27293;SDS011;14785;52.556;13.430;2022-08-19T07:38:36;17.35;;;14.23;;
27293;SDS011;14785;52.556;13.430;2022-08-19T07:41:04;16.38;;;14.13;;
27293;SDS011;14785;52.556;13.430;2022-08-19T07:43:30;20.08;;;17.85;;
27293;SDS011;14785;52.556;13.430;2022-08-19T07:45:56;19.80;;;16.73;;
27293;SDS011;14785;52.556;13.430;2022-08-19T07:48:26;17.33;;;15.38;;
27293;SDS011;14785;52.556;13.430;2022-08-19T07:50:53;23.55;;;17.42;;
27293;SDS011;14785;52.556;13.430;2022-08-19T07:53:21;22.15;;;19.92;;
27293;SDS011;14785;52.556;13.430;2022-08-19T07:55:47;22.10;;;19.65;;
27293;SDS011;14785;52.556;13.430;2022-08-19T07:58:14;21.23;;;18.57;;
27293;SDS011;14785;52.556;13.430;2022-08-19T08:00:42;17.15;;;15.32;;
27293;SDS011;14785;52.556;13.430;2022-08-19T08:03:09;18.55;;;15.20;;
27293;SDS011;14785;52.556;13.430;2022-08-19T08:05:38;23.83;;;20.70;;
27293;SDS011;14785;52.556;13.430;2022-08-19T08:08:25;23.77;;;21.30;;
27293;SDS011;14785;52.556;13.430;2022-08-19T08:11:10;22.67;;;20.30;;
27293;SDS011;14785;52.556;13.430;2022-08-19T08:13:37;24.00;;;20.85;;
27293;SDS011;14785;52.556;13.430;2022-08-19T08:16:03;21.15;;;17.70;;
27293;SDS011;14785;52.556;13.430;2022-08-19T08:18:29;20.65;;;17.92;;
27293;SDS011;14785;52.556;13.430;2022-08-19T08:20:55;17.80;;;16.00;;
27293;SDS011;14785;52.556;13.430;2022-08-19T08:23:20;21.75;;;19.65;;
27293;SDS011;14785;52.556;13.430;2022-08-19T08:25:50;27.52;;;22.08;;
27293;SDS011;14785;52.556;13.430;2022-08-19T08:28:18;16.70;;;14.70;;
27293;SDS011;14785;52.556;13.430;2022-08-19T08:30:44;22.77;;;19.33;;
27293;SDS011;14785;52.556;13.430;2022-08-19T08:33:12;25.15;;;19.60;;
27293;SDS011;14785;52.556;13.430;2022-08-19T08:35:39;20.92;;;18.77;;
27293;SDS011;14785;52.556;13.430;2022-08-19T08:38:06;28.02;;;24.98;;
27293;SDS011;14785;52.556;13.430;2022-08-19T08:45:50;25.77;;;23.20;;
27293;SDS011;14785;52.556;13.430;2022-08-19T08:48:24;25.70;;;23.20;;
27293;SDS011;14785;52.556;13.430;2022-08-19T08:51:01;31.20;;;27.98;;
27293;SDS011;14785;52.556;13.430;2022-08-19T08:53:31;28.13;;;25.27;;
27293;SDS011;14785;52.556;13.430;2022-08-19T08:56:00;27.15;;;24.00;;
27293;SDS011;14785;52.556;13.430;2022-08-19T08:58:32;28.95;;;26.10;;
27293;SDS011;14785;52.556;13.430;2022-08-19T09:01:10;27.92;;;25.25;;
27293;SDS011;14785;52.556;13.430;2022-08-19T09:03:37;29.05;;;26.00;;
27293;SDS011;14785;52.556;13.430;2022-08-19T09:06:12;30.13;;;27.02;;
27293;SDS011;14785;52.556;13.430;2022-08-19T09:08:49;26.75;;;24.15;;
27293;SDS011;14785;52.556;13.430;2022-08-19T09:11:24;31.92;;;27.70;;
27293;SDS011;14785;52.556;13.430;2022-08-19T09:14:02;30.35;;;27.33;;
27293;SDS011;14785;52.556;13.430;2022-08-19T09:16:37;29.35;;;26.38;;
27293;SDS011;14785;52.556;13.430;2022-08-19T09:19:05;27.85;;;25.17;;
27293;SDS011;14785;52.556;13.430;2022-08-19T09:21:32;26.88;;;22.38;;
27293;SDS011;14785;52.556;13.430;2022-08-19T09:23:59;25.92;;;23.30;;
27293;SDS011;14785;52.556;13.430;2022-08-19T09:26:25;25.45;;;22.92;;
27293;SDS011;14785;52.556;13.430;2022-08-19T09:28:52;27.23;;;24.35;;
27293;SDS011;14785;52.556;13.430;2022-08-19T09:31:19;25.55;;;22.92;;
27293;SDS011;14785;52.556;13.430;2022-08-19T09:33:47;24.98;;;22.40;;
27293;SDS011;14785;52.556;13.430;2022-08-19T09:36:14;23.00;;;20.50;;
27293;SDS011;14785;52.556;13.430;2022-08-19T09:38:41;22.83;;;20.38;;
27293;SDS011;14785;52.556;13.430;2022-08-19T09:41:08;24.15;;;21.65;;
27293;SDS011;14785;52.556;13.430;2022-08-19T09:43:38;23.55;;;21.23;;
27293;SDS011;14785;52.556;13.430;2022-08-19T09:46:05;23.10;;;20.73;;
27293;SDS011;14785;52.556;13.430;2022-08-19T09:48:31;23.38;;;20.90;;
27293;SDS011;14785;52.556;13.430;2022-08-19T09:51:07;25.35;;;22.65;;
27293;SDS011;14785;52.556;13.430;2022-08-19T09:56:00;19.75;;;17.75;;
27293;SDS011;14785;52.556;13.430;2022-08-19T10:00:56;19.70;;;17.67;;
27293;SDS011;14785;52.556;13.430;2022-08-19T10:03:23;17.17;;;15.38;;
27293;SDS011;14785;52.556;13.430;2022-08-19T10:05:49;20.98;;;18.70;;
27293;SDS011;14785;52.556;13.430;2022-08-19T10:11:10;21.10;;;18.75;;
27293;SDS011;14785;52.556;13.430;2022-08-19T10:13:35;19.67;;;17.70;;
27293;SDS011;14785;52.556;13.430;2022-08-19T10:18:33;17.88;;;16.00;;
27293;SDS011;14785;52.556;13.430;2022-08-19T10:21:04;20.02;;;18.13;;
27293;SDS011;14785;52.556;13.430;2022-08-19T10:23:35;20.17;;;18.10;;
27293;SDS011;14785;52.556;13.430;2022-08-19T10:26:03;20.60;;;18.48;;
27293;SDS011;14785;52.556;13.430;2022-08-19T10:28:30;21.48;;;19.25;;
27293;SDS011;14785;52.556;13.430;2022-08-19T10:30:56;20.85;;;18.17;;
27293;SDS011;14785;52.556;13.430;2022-08-19T10:33:22;19.43;;;17.27;;
27293;SDS011;14785;52.556;13.430;2022-08-19T10:35:47;21.07;;;18.90;;
27293;SDS011;14785;52.556;13.430;2022-08-19T10:38:12;20.80;;;18.63;;
27293;SDS011;14785;52.556;13.430;2022-08-19T10:40:37;20.23;;;18.23;;
27293;SDS011;14785;52.556;13.430;2022-08-19T10:43:03;20.57;;;18.53;;
27293;SDS011;14785;52.556;13.430;2022-08-19T10:45:28;21.20;;;18.27;;
27293;SDS011;14785;52.556;13.430;2022-08-19T10:47:54;21.53;;;17.60;;
27293;SDS011;14785;52.556;13.430;2022-08-19T10:50:19;17.90;;;16.10;;
27293;SDS011;14785;52.556;13.430;2022-08-19T10:53:07;19.48;;;17.20;;
27293;SDS011;14785;52.556;13.430;2022-08-19T10:55:33;18.73;;;16.73;;
27293;SDS011;14785;52.556;13.430;2022-08-19T10:58:18;19.20;;;17.10;;
27293;SDS011;14785;52.556;13.430;2022-08-19T11:00:55;19.25;;;15.77;;
27293;SDS011;14785;52.556;13.430;2022-08-19T11:03:22;20.02;;;16.73;;
27293;SDS011;14785;52.556;13.430;2022-08-19T11:06:02;18.77;;;16.65;;
27293;SDS011;14785;52.556;13.430;2022-08-19T11:08:30;19.25;;;17.35;;
27293;SDS011;14785;52.556;13.430;2022-08-19T11:10:58;19.17;;;17.20;;
27293;SDS011;14785;52.556;13.430;2022-08-19T11:13:30;18.88;;;17.13;;
27293;SDS011;14785;52.556;13.430;2022-08-19T11:16:01;18.52;;;16.63;;
27293;SDS011;14785;52.556;13.430;2022-08-19T11:18:29;18.90;;;17.08;;
27293;SDS011;14785;52.556;13.430;2022-08-19T11:20:55;18.83;;;16.70;;
27293;SDS011;14785;52.556;13.430;2022-08-19T11:23:30;19.02;;;17.23;;
27293;SDS011;14785;52.556;13.430;2022-08-19T11:25:56;19.20;;;16.80;;
27293;SDS011;14785;52.556;13.430;2022-08-19T11:28:21;17.52;;;15.70;;
27293;SDS011;14785;52.556;13.430;2022-08-19T11:30:47;19.23;;;17.23;;
27293;SDS011;14785;52.556;13.430;2022-08-19T11:33:12;18.17;;;16.23;;
27293;SDS011;14785;52.556;13.430;2022-08-19T11:35:38;18.90;;;17.00;;
27293;SDS011;14785;52.556;13.430;2022-08-19T11:38:05;19.65;;;17.58;;
27293;SDS011;14785;52.556;13.430;2022-08-19T11:40:30;20.13;;;18.10;;
27293;SDS011;14785;52.556;13.430;2022-08-19T11:42:56;18.37;;;16.47;;
27293;SDS011;14785;52.556;13.430;2022-08-19T11:45:22;21.03;;;18.77;;
27293;SDS011;14785;52.556;13.430;2022-08-19T11:47:48;19.42;;;17.60;;
27293;SDS011;14785;52.556;13.430;2022-08-19T11:50:14;20.47;;;17.87;;
27293;SDS011;14785;52.556;13.430;2022-08-19T11:52:40;19.05;;;17.00;;
27293;SDS011;14785;52.556;13.430;2022-08-19T11:55:06;19.00;;;17.07;;
27293;SDS011;14785;52.556;13.430;2022-08-19T11:57:32;16.33;;;14.63;;
27293;SDS011;14785;52.556;13.430;2022-08-19T11:59:57;16.77;;;15.27;;
27293;SDS011;14785;52.556;13.430;2022-08-19T12:02:22;17.97;;;16.00;;
27293;SDS011;14785;52.556;13.430;2022-08-19T12:04:48;16.60;;;14.90;;
27293;SDS011;14785;52.556;13.430;2022-08-19T12:07:14;15.50;;;14.00;;
27293;SDS011;14785;52.556;13.430;2022-08-19T12:09:39;16.57;;;14.23;;
27293;SDS011;14785;52.556;13.430;2022-08-19T12:12:05;14.97;;;13.67;;
27293;SDS011;14785;52.556;13.430;2022-08-19T12:14:30;14.15;;;12.80;;
27293;SDS011;14785;52.556;13.430;2022-08-19T12:16:56;14.10;;;12.70;;
27293;SDS011;14785;52.556;13.430;2022-08-19T12:19:22;14.95;;;12.30;;
27293;SDS011;14785;52.556;13.430;2022-08-19T12:21:49;14.50;;;13.00;;
27293;SDS011;14785;52.556;13.430;2022-08-19T12:24:16;14.80;;;13.02;;
27293;SDS011;14785;52.556;13.430;2022-08-19T12:26:47;12.75;;;11.55;;
27293;SDS011;14785;52.556;13.430;2022-08-19T12:29:13;12.13;;;10.93;;
27293;SDS011;14785;52.556;13.430;2022-08-19T12:31:38;12.47;;;11.23;;
27293;SDS011;14785;52.556;13.430;2022-08-19T12:34:04;12.00;;;10.80;;
27293;SDS011;14785;52.556;13.430;2022-08-19T12:36:29;13.47;;;11.87;;
27293;SDS011;14785;52.556;13.430;2022-08-19T12:38:55;13.80;;;11.97;;
27293;SDS011;14785;52.556;13.430;2022-08-19T12:41:24;12.52;;;11.23;;
27293;SDS011;14785;52.556;13.430;2022-08-19T12:46:16;13.48;;;12.13;;
27293;SDS011;14785;52.556;13.430;2022-08-19T12:48:43;13.98;;;12.57;;
27293;SDS011;14785;52.556;13.430;2022-08-19T12:51:11;15.23;;;11.50;;
27293;SDS011;14785;52.556;13.430;2022-08-19T12:53:44;13.93;;;12.10;;
27293;SDS011;14785;52.556;13.430;2022-08-19T12:56:10;13.07;;;11.10;;
27293;SDS011;14785;52.556;13.430;2022-08-19T13:01:11;14.30;;;11.33;;
27293;SDS011;14785;52.556;13.430;2022-08-19T13:03:38;12.30;;;11.15;;
27293;SDS011;14785;52.556;13.430;2022-08-19T13:06:04;14.85;;;11.70;;
27293;SDS011;14785;52.556;13.430;2022-08-19T13:08:29;12.80;;;11.57;;
27293;SDS011;14785;52.556;13.430;2022-08-19T13:10:54;14.40;;;12.80;;
27293;SDS011;14785;52.556;13.430;2022-08-19T13:13:20;15.98;;;12.27;;
27293;SDS011;14785;52.556;13.430;2022-08-19T13:15:46;13.02;;;11.70;;
27293;SDS011;14785;52.556;13.430;2022-08-19T13:18:12;13.88;;;11.85;;
27293;SDS011;14785;52.556;13.430;2022-08-19T13:20:39;14.02;;;11.90;;
27293;SDS011;14785;52.556;13.430;2022-08-19T13:23:06;13.57;;;12.20;;
27293;SDS011;14785;52.556;13.430;2022-08-19T13:25:32;14.35;;;12.75;;
27293;SDS011;14785;52.556;13.430;2022-08-19T13:27:58;18.33;;;14.80;;
27293;SDS011;14785;52.556;13.430;2022-08-19T13:30:24;14.70;;;13.27;;
27293;SDS011;14785;52.556;13.430;2022-08-19T13:33:09;17.00;;;13.20;;
27293;SDS011;14785;52.556;13.430;2022-08-19T13:35:46;14.15;;;12.43;;
27293;SDS011;14785;52.556;13.430;2022-08-19T13:38:12;14.25;;;12.75;;
27293;SDS011;14785;52.556;13.430;2022-08-19T13:40:39;14.82;;;13.35;;
27293;SDS011;14785;52.556;13.430;2022-08-19T13:45:32;16.08;;;14.50;;
27293;SDS011;14785;52.556;13.430;2022-08-19T13:47:59;15.48;;;13.88;;
27293;SDS011;14785;52.556;13.430;2022-08-19T13:50:29;17.80;;;13.93;;
27293;SDS011;14785;52.556;13.430;2022-08-19T13:52:56;15.23;;;12.55;;
27293;SDS011;14785;52.556;13.430;2022-08-19T13:55:22;15.07;;;13.40;;
27293;SDS011;14785;52.556;13.430;2022-08-19T13:57:51;14.30;;;12.85;;
27293;SDS011;14785;52.556;13.430;2022-08-19T14:00:21;15.52;;;12.90;;
27293;SDS011;14785;52.556;13.430;2022-08-19T14:02:50;15.57;;;13.02;;
27293;SDS011;14785;52.556;13.430;2022-08-19T14:05:16;15.63;;;13.52;;
27293;SDS011;14785;52.556;13.430;2022-08-19T14:07:43;14.65;;;13.30;;
27293;SDS011;14785;52.556;13.430;2022-08-19T14:10:09;14.77;;;12.60;;
27293;SDS011;14785;52.556;13.430;2022-08-19T14:12:37;14.68;;;12.93;;
27293;SDS011;14785;52.556;13.430;2022-08-19T14:15:03;14.23;;;12.82;;
27293;SDS011;14785;52.556;13.430;2022-08-19T14:17:30;14.93;;;12.55;;
27293;SDS011;14785;52.556;13.430;2022-08-19T14:19:59;16.23;;;12.80;;
27293;SDS011;14785;52.556;13.430;2022-08-19T14:22:28;12.98;;;11.23;;
27293;SDS011;14785;52.556;13.430;2022-08-19T14:24:55;13.55;;;12.25;;
27293;SDS011;14785;52.556;13.430;2022-08-19T14:27:21;13.00;;;11.60;;
27293;SDS011;14785;52.556;13.430;2022-08-19T14:29:50;14.85;;;12.30;;
27293;SDS011;14785;52.556;13.430;2022-08-19T14:32:15;13.93;;;12.45;;
27293;SDS011;14785;52.556;13.430;2022-08-19T14:34:41;17.23;;;12.00;;
27293;SDS011;14785;52.556;13.430;2022-08-19T14:37:06;13.47;;;12.07;;
27293;SDS011;14785;52.556;13.430;2022-08-19T14:39:32;13.43;;;11.98;;
27293;SDS011;14785;52.556;13.430;2022-08-19T14:41:58;13.27;;;11.27;;
27293;SDS011;14785;52.556;13.430;2022-08-19T14:44:23;13.97;;;12.57;;
27293;SDS011;14785;52.556;13.430;2022-08-19T14:46:49;12.88;;;11.55;;
27293;SDS011;14785;52.556;13.430;2022-08-19T14:49:15;13.40;;;12.18;;
27293;SDS011;14785;52.556;13.430;2022-08-19T14:51:40;13.30;;;11.90;;
27293;SDS011;14785;52.556;13.430;2022-08-19T14:54:06;13.33;;;12.00;;
27293;SDS011;14785;52.556;13.430;2022-08-19T14:56:31;14.38;;;11.60;;